createdAt,value
2018-11-22T00:00:23.200Z,85.41
2018-11-22T00:03:12.599Z,85.32
2018-11-22T00:06:01.970Z,85.27
2018-11-22T00:08:50.790Z,85.13
2018-11-22T00:11:40.080Z,85.21
2018-11-22T00:14:29.152Z,85.19
2018-11-22T00:17:18.598Z,84.85
2018-11-22T00:20:08.406Z,84.78
2018-11-22T00:22:57.459Z,84.96
2018-11-22T00:25:46.266Z,85.06
2018-11-22T00:28:35.537Z,84.99
2018-11-22T00:31:24.977Z,84.88
2018-11-22T00:34:13.816Z,84.62
2018-11-22T00:37:03.218Z,84.27
2018-11-22T00:39:52.506Z,84.45
2018-11-22T00:42:42.240Z,84.51
2018-11-22T00:45:31.546Z,84.52
2018-11-22T00:48:20.599Z,84.53
2018-11-22T00:51:09.398Z,84.85
2018-11-22T00:53:58.890Z,85.18
2018-11-22T00:56:48.132Z,85.23
2018-11-22T00:59:36.912Z,85.41
2018-11-22T01:02:25.945Z,85.33
2018-11-22T01:05:16.309Z,85.27
2018-11-22T01:08:05.521Z,85.09
2018-11-22T01:10:54.371Z,84.95
2018-11-22T01:13:43.863Z,84.88
2018-11-22T01:16:32.884Z,84.97
2018-11-22T01:19:22.297Z,85.02
2018-11-22T01:22:11.324Z,84.48
2018-11-22T01:25:00.424Z,84.88
2018-11-22T01:27:49.942Z,84.87
2018-11-22T01:30:39.838Z,85.04
2018-11-22T01:33:28.881Z,85.66
2018-11-22T01:36:17.971Z,85.89
2018-11-22T01:39:09.138Z,85.77
2018-11-22T01:41:58.515Z,85.80
2018-11-22T01:44:47.893Z,85.71
2018-11-22T01:47:37.146Z,85.61
2018-11-22T01:50:26.339Z,85.78
2018-11-22T01:53:15.137Z,85.88
2018-11-22T01:56:04.421Z,85.50
2018-11-22T01:58:53.659Z,85.45
2018-11-22T02:01:42.716Z,85.80
2018-11-22T02:04:31.514Z,85.96
2018-11-22T02:07:20.929Z,85.59
2018-11-22T02:10:12.076Z,85.39
2018-11-22T02:13:01.708Z,85.24
2018-11-22T02:15:50.951Z,85.26
2018-11-22T02:18:40.238Z,85.44
2018-11-22T02:21:29.749Z,85.50
2018-11-22T02:24:18.556Z,85.47
2018-11-22T02:27:07.699Z,85.21
2018-11-22T02:29:56.903Z,85.00
2018-11-22T02:32:47.293Z,84.79
2018-11-22T02:35:36.714Z,84.43
2018-11-22T02:38:25.580Z,84.75
2018-11-22T02:41:14.414Z,84.73
2018-11-22T02:44:03.262Z,84.37
2018-11-22T02:46:52.062Z,84.43
2018-11-22T02:49:41.237Z,84.43
2018-11-22T02:52:30.073Z,84.52
2018-11-22T02:55:18.880Z,84.42
2018-11-22T02:58:07.981Z,84.58
2018-11-22T03:00:56.771Z,84.67
2018-11-22T03:03:45.589Z,84.36
2018-11-22T03:06:34.400Z,84.57
2018-11-22T03:09:23.865Z,84.65
2018-11-22T03:12:12.968Z,84.43
2018-11-22T03:15:02.460Z,83.98
2018-11-22T03:17:51.390Z,84.13
2018-11-22T03:20:40.625Z,83.87
2018-11-22T03:23:29.760Z,82.73
2018-11-22T03:26:18.868Z,82.83
2018-11-22T03:29:07.698Z,83.21
2018-11-22T03:31:56.820Z,82.79
2018-11-22T03:34:45.928Z,82.44
2018-11-22T03:37:54.293Z,82.18
2018-11-22T03:40:43.389Z,82.18
2018-11-22T03:43:32.737Z,82.83
2018-11-22T03:46:21.833Z,83.20
2018-11-22T03:49:11.009Z,83.60
2018-11-22T03:51:59.857Z,83.60
2018-11-22T03:54:48.985Z,83.57
2018-11-22T03:57:38.618Z,83.95
2018-11-22T04:00:28.987Z,83.74
2018-11-22T04:03:18.095Z,84.17
2018-11-22T04:06:07.033Z,84.11
2018-11-22T04:08:56.145Z,84.42
2018-11-22T04:11:45.186Z,84.54
2018-11-22T04:14:34.329Z,84.37
2018-11-22T04:17:23.672Z,84.26
2018-11-22T04:20:14.405Z,84.08
2018-11-22T04:23:03.222Z,84.04
2018-11-22T04:25:52.345Z,84.08
2018-11-22T04:28:41.212Z,84.25
2018-11-22T04:31:30.384Z,84.03
2018-11-22T04:34:19.213Z,83.93
2018-11-22T04:37:08.150Z,83.93
2018-11-22T04:39:57.258Z,83.66
2018-11-22T04:42:46.728Z,83.55
2018-11-22T04:45:35.682Z,83.78
2018-11-22T04:48:24.637Z,83.71
2018-11-22T04:51:32.815Z,83.67
2018-11-22T04:54:21.710Z,83.67
2018-11-22T04:57:10.509Z,83.69
2018-11-22T04:59:59.396Z,83.62
2018-11-22T05:02:48.342Z,83.55
2018-11-22T05:05:37.553Z,83.32
2018-11-22T05:08:26.633Z,83.45
2018-11-22T05:11:15.584Z,83.97
2018-11-22T05:14:04.818Z,84.57
2018-11-22T05:16:54.169Z,84.96
2018-11-22T05:19:43.033Z,85.24
2018-11-22T05:22:32.132Z,85.61
2018-11-22T05:25:21.003Z,85.86
2018-11-22T05:28:10.380Z,85.85
2018-11-22T05:31:19.305Z,86.09
2018-11-22T05:34:08.395Z,86.65
2018-11-22T05:36:57.276Z,86.92
2018-11-22T05:39:47.105Z,87.79
2018-11-22T05:42:35.890Z,87.66
2018-11-22T05:45:26.373Z,88.83
2018-11-22T05:48:16.235Z,88.81
2018-11-22T05:51:05.197Z,89.20
2018-11-22T05:53:54.193Z,89.20
2018-11-22T05:56:43.324Z,88.89
2018-11-22T05:59:32.640Z,88.90
2018-11-22T06:02:21.826Z,89.02
2018-11-22T06:05:12.019Z,88.97
2018-11-22T06:08:01.252Z,89.05
2018-11-22T06:10:50.404Z,88.97
2018-11-22T06:13:39.516Z,88.87
2018-11-22T06:16:48.240Z,88.30
2018-11-22T06:19:37.557Z,88.30
2018-11-22T06:22:27.010Z,88.45
2018-11-22T06:25:16.904Z,88.02
2018-11-22T06:28:25.400Z,87.43
2018-11-22T06:31:14.529Z,87.43
2018-11-22T06:34:03.614Z,87.57
2018-11-22T06:36:52.676Z,88.17
2018-11-22T06:39:42.099Z,89.61
2018-11-22T06:42:32.265Z,91.10
2018-11-22T12:17:18.409Z,68.07
2018-11-22T12:19:53.275Z,67.15
2018-11-22T12:22:27.990Z,66.76
2018-11-22T12:25:02.652Z,66.86
2018-11-22T12:27:37.684Z,67.24
2018-11-22T12:30:15.005Z,65.94
2018-11-22T12:32:55.392Z,66.53
2018-11-22T12:35:35.361Z,65.94
2018-11-22T12:38:15.142Z,67.15
2018-11-22T12:40:49.726Z,66.96
2018-11-22T12:43:24.590Z,66.55
2018-11-22T12:46:00.355Z,66.70
2018-11-22T12:48:34.853Z,67.05
2018-11-22T12:51:09.539Z,67.44
2018-11-22T12:53:44.126Z,68.43
2018-11-22T12:56:19.018Z,67.89
2018-11-22T12:58:53.632Z,68.10
2018-11-22T13:01:28.235Z,70.05
2018-11-22T13:04:02.845Z,70.88
2018-11-22T13:06:37.917Z,70.48
2018-11-22T13:09:12.433Z,70.99
2018-11-22T13:11:47.692Z,71.50
2018-11-22T13:14:22.190Z,70.84
2018-11-22T13:16:56.824Z,70.51
2018-11-22T13:19:31.344Z,68.94
2018-11-22T13:22:06.854Z,67.69
2018-11-22T13:24:41.398Z,67.18
2018-11-22T13:27:15.969Z,66.10
2018-11-22T13:29:50.798Z,65.88
2018-11-22T13:32:25.318Z,64.18
2018-11-22T13:34:59.902Z,64.48
2018-11-22T13:37:34.791Z,64.55
2018-11-22T13:40:10.754Z,64.77
2018-11-22T13:42:46.416Z,64.67
2018-11-22T13:45:23.621Z,64.92
2018-11-22T13:47:59.262Z,64.48
2018-11-22T13:50:35.649Z,64.55
2018-11-22T13:53:09.667Z,64.87
2018-11-22T13:55:44.271Z,65.94
2018-11-22T13:58:19.298Z,66.30
2018-11-22T14:00:54.025Z,66.93
2018-11-22T14:03:28.617Z,67.76
2018-11-22T14:06:03.473Z,67.67
2018-11-22T14:08:38.453Z,67.45
2018-11-22T14:11:15.242Z,68.03
2018-11-22T14:13:48.673Z,69.06
2018-11-22T14:16:23.329Z,69.59
2018-11-22T14:18:58.256Z,69.15
2018-11-22T14:21:33.228Z,68.79
2018-11-22T14:24:08.057Z,69.06
2018-11-22T14:26:42.568Z,69.24
2018-11-22T14:29:17.761Z,69.03
2018-11-22T14:31:52.769Z,69.78
2018-11-22T14:34:27.500Z,69.84
2018-11-22T14:37:02.092Z,70.53
2018-11-22T14:39:37.663Z,69.82
2018-11-22T14:42:12.775Z,71.03
2018-11-22T14:44:47.493Z,71.50
2018-11-22T14:47:21.986Z,71.09
2018-11-22T14:49:56.453Z,71.57
2018-11-22T14:52:31.401Z,71.07
2018-11-22T14:55:10.047Z,71.04
2018-11-22T14:57:44.749Z,71.56
2018-11-22T15:00:19.418Z,72.01
2018-11-22T15:02:53.913Z,72.41
2018-11-22T15:05:28.725Z,72.20
2018-11-22T15:08:03.608Z,72.81
2018-11-22T15:10:38.231Z,73.05
2018-11-22T15:13:12.981Z,73.52
2018-11-22T15:15:47.619Z,73.57
2018-11-22T15:18:22.245Z,74.09
2018-11-22T15:21:01.019Z,74.78
2018-11-22T15:23:31.257Z,75.54
2018-11-22T15:26:05.945Z,75.70
2018-11-22T15:28:40.502Z,76.58
2018-11-22T15:31:15.264Z,77.00
2018-11-22T15:33:49.710Z,77.58
2018-11-22T15:36:24.272Z,78.76
2018-11-22T15:38:59.357Z,79.22
2018-11-22T15:41:34.229Z,79.26
2018-11-22T15:44:09.191Z,79.43
2018-11-22T15:46:43.969Z,80.03
2018-11-22T15:49:18.757Z,80.40
2018-11-22T15:51:53.417Z,80.69
2018-11-22T15:54:28.187Z,81.37
2018-11-22T15:57:03.304Z,81.91
2018-11-22T15:59:38.062Z,82.20
2018-11-22T16:02:12.729Z,81.93
2018-11-22T16:04:48.050Z,82.30
2018-11-22T16:07:23.489Z,82.20
2018-11-22T16:09:58.371Z,82.69
2018-11-22T16:12:33.431Z,82.48
2018-11-22T16:15:14.897Z,82.41
2018-11-22T16:17:50.244Z,83.27
2018-11-22T16:20:24.989Z,84.17
2018-11-22T16:22:59.444Z,83.95
2018-11-22T16:25:34.638Z,84.51
2018-11-22T16:28:09.347Z,84.48
2018-11-22T16:30:44.830Z,84.77
2018-11-22T16:33:20.152Z,85.03
2018-11-22T16:35:56.448Z,85.71
2018-11-22T16:38:32.240Z,86.08
2018-11-22T16:41:06.177Z,85.88
2018-11-22T16:43:41.896Z,86.20
2018-11-22T16:46:18.266Z,86.58
2018-11-22T16:48:53.302Z,86.80
2018-11-22T16:51:28.249Z,87.02
2018-11-22T16:54:02.946Z,87.22
2018-11-22T16:56:37.815Z,87.65
2018-11-22T16:59:12.966Z,87.53
2018-11-22T17:01:48.145Z,87.59
2018-11-22T17:04:22.991Z,87.57
2018-11-22T17:06:58.277Z,87.52
2018-11-22T17:09:32.953Z,88.01
2018-11-22T17:12:08.386Z,88.18
2018-11-22T17:14:43.449Z,88.30
2018-11-22T17:17:18.795Z,88.08
2018-11-22T17:19:59.282Z,87.98
2018-11-22T17:22:34.529Z,88.23
2018-11-22T17:25:13.640Z,87.85
2018-11-22T17:27:49.730Z,87.95
2018-11-22T17:30:26.146Z,87.95
2018-11-22T17:33:01.069Z,88.18
2018-11-22T17:35:36.358Z,87.92
2018-11-22T17:38:12.131Z,88.04
2018-11-22T17:40:49.441Z,87.98
2018-11-22T17:43:24.836Z,88.59
2018-11-22T17:45:59.884Z,88.70
2018-11-22T17:48:34.669Z,88.74
2018-11-22T17:51:09.341Z,88.42
2018-11-22T17:53:43.822Z,88.28
2018-11-22T17:56:19.586Z,88.69
2018-11-22T17:58:54.227Z,88.58
2018-11-22T18:01:28.938Z,88.15
2018-11-22T18:04:03.659Z,88.11
2018-11-22T18:06:38.830Z,88.05
2018-11-22T18:09:13.966Z,88.16
2018-11-22T18:11:48.610Z,88.82
2018-11-22T18:14:23.507Z,88.74
2018-11-22T18:16:58.305Z,88.62
2018-11-22T18:19:33.663Z,88.41
2018-11-22T18:22:10.094Z,88.44
2018-11-22T18:24:47.594Z,88.41
2018-11-22T18:27:22.274Z,88.31
2018-11-22T18:29:56.818Z,88.80
2018-11-22T18:32:36.445Z,88.73
2018-11-22T18:35:12.709Z,88.56
2018-11-22T18:37:47.509Z,88.68
2018-11-22T18:40:23.838Z,88.99
2018-11-22T18:42:59.965Z,89.04
2018-11-22T18:45:37.463Z,89.07
2018-11-22T18:48:14.888Z,88.92
2018-11-22T18:50:49.703Z,89.11
2018-11-22T18:53:24.748Z,88.84
2018-11-22T18:55:59.429Z,88.47
2018-11-22T18:58:34.101Z,88.62
2018-11-22T19:01:10.149Z,88.69
2018-11-22T19:03:44.833Z,88.80
2018-11-22T19:06:21.753Z,88.75
2018-11-22T19:11:36.989Z,89.25
2018-11-22T19:14:30.875Z,89.16
2018-11-22T19:17:05.723Z,89.44
2018-11-22T19:19:40.310Z,89.37
2018-11-22T19:22:16.665Z,89.48
2018-11-22T19:24:51.838Z,89.49
2018-11-22T19:27:26.557Z,89.56
2018-11-22T19:30:01.719Z,89.45
2018-11-22T19:32:36.414Z,89.25
2018-11-22T19:35:12.203Z,88.75
2018-11-22T19:37:47.142Z,88.48
2018-11-22T19:40:24.661Z,88.44
2018-11-22T19:43:05.687Z,88.21
2018-11-22T19:45:43.723Z,88.33
2018-11-22T19:48:18.332Z,88.48
2018-11-22T19:50:52.966Z,88.68
2018-11-22T19:53:27.502Z,88.62
2018-11-22T19:56:02.449Z,88.19
2018-11-22T19:58:37.121Z,88.20
2018-11-22T20:01:11.811Z,88.13
2018-11-22T20:03:46.771Z,88.22
2018-11-22T20:06:21.240Z,87.92
2018-11-22T20:08:55.757Z,87.76
2018-11-22T20:11:30.517Z,87.59
2018-11-22T20:14:06.474Z,87.64
2018-11-22T20:16:41.253Z,87.67
2018-11-22T20:19:15.814Z,87.89
2018-11-22T20:21:50.266Z,88.01
2018-11-22T20:24:24.823Z,88.14
2018-11-22T20:26:59.346Z,88.38
2018-11-22T20:29:34.182Z,88.37
2018-11-22T20:32:08.801Z,88.54
2018-11-22T20:34:45.592Z,88.86
2018-11-22T20:37:20.493Z,89.01
2018-11-22T20:39:58.024Z,88.71
2018-11-22T20:42:32.622Z,89.42
2018-11-22T20:45:09.509Z,88.84
2018-11-22T20:47:45.008Z,88.87
2018-11-22T20:50:20.934Z,89.31
2018-11-22T20:52:55.647Z,89.81
2018-11-22T20:55:31.905Z,89.68
2018-11-22T20:58:07.399Z,89.49
2018-11-22T21:00:42.518Z,89.38
2018-11-22T21:03:17.213Z,89.44
2018-11-22T21:05:58.155Z,89.33
2018-11-22T21:08:33.222Z,89.50
2018-11-22T21:11:08.601Z,89.65
2018-11-22T21:13:43.203Z,89.53
2018-11-22T21:16:25.613Z,89.44
2018-11-22T21:19:00.374Z,89.96
2018-11-22T21:21:35.364Z,89.84
2018-11-22T21:24:10.102Z,89.98
2018-11-22T21:26:46.030Z,90.45
2018-11-22T21:29:20.706Z,90.18
2018-11-22T21:31:55.416Z,89.35
2018-11-22T21:34:30.150Z,89.53
2018-11-22T21:37:05.298Z,88.99
2018-11-22T21:39:39.754Z,89.21
2018-11-22T21:42:14.330Z,89.34
2018-11-22T21:44:52.309Z,89.30
2018-11-22T21:47:29.374Z,89.35
2018-11-22T21:50:08.745Z,89.49
2018-11-22T21:52:43.686Z,89.70
2018-11-22T21:55:21.274Z,89.65
2018-11-22T21:57:57.325Z,89.68
2018-11-22T22:00:38.315Z,89.49
2018-11-22T22:03:12.820Z,89.72
2018-11-22T22:05:47.502Z,88.90
2018-11-22T22:08:23.146Z,89.35
2018-11-22T22:10:58.093Z,89.05
2018-11-22T22:13:32.647Z,89.07
2018-11-22T22:16:07.634Z,89.26
2018-11-22T22:18:42.195Z,89.05
2018-11-22T22:21:16.622Z,89.45
2018-11-22T22:23:51.745Z,89.38
2018-11-22T22:26:26.591Z,89.58
2018-11-22T22:29:01.378Z,89.59
2018-11-22T22:31:35.854Z,89.52
2018-11-22T22:34:10.337Z,89.52
2018-11-22T22:36:45.169Z,89.32
2018-11-22T22:39:19.659Z,89.56
2018-11-22T22:41:54.566Z,89.79
2018-11-22T22:44:29.028Z,90.14
2018-11-22T22:47:03.605Z,90.17
2018-11-22T22:49:38.292Z,89.67
2018-11-22T22:52:13.454Z,89.34
2018-11-22T22:54:47.921Z,89.51
2018-11-22T22:57:22.787Z,89.43
2018-11-22T22:59:57.388Z,89.61
2018-11-22T23:02:32.192Z,89.41
2018-11-22T23:05:07.006Z,89.33
2018-11-22T23:07:42.090Z,89.19
2018-11-22T23:10:17.373Z,89.53
2018-11-22T23:12:52.899Z,89.81
2018-11-22T23:15:28.769Z,89.92
2018-11-22T23:18:03.780Z,89.58
2018-11-22T23:20:39.281Z,89.37
2018-11-22T23:23:14.008Z,89.37
2018-11-22T23:25:49.707Z,89.59
2018-11-22T23:28:24.159Z,90.17
2018-11-22T23:30:58.637Z,90.24
2018-11-22T23:33:33.463Z,90.27
2018-11-22T23:36:07.947Z,89.75
2018-11-22T23:38:42.685Z,89.64
2018-11-22T23:41:17.533Z,89.71
2018-11-22T23:43:52.156Z,89.49
2018-11-22T23:46:27.103Z,89.11
2018-11-22T23:49:01.685Z,88.58
2018-11-22T23:51:36.503Z,88.82
2018-11-22T23:54:11.175Z,89.00
2018-11-22T23:56:46.086Z,88.93
2018-11-22T23:59:20.886Z,89.24
